sensor_id;sensor_type;location;lat;lon;timestamp;pressure;altitude;pressure_sealevel;temperature;humidity
52949;BME280;38812;50.942;3.644;2023-04-20T00:01:32;102147.09;;;7.93;63.54
52949;BME280;38812;50.942;3.644;2023-04-20T00:03:57;102154.00;;;7.88;64.33
52949;BME280;38812;50.942;3.644;2023-04-20T00:06:25;102150.47;;;7.84;63.75
52949;BME280;38812;50.942;3.644;2023-04-20T00:08:54;102152.19;;;7.79;64.25
52949;BME280;38812;50.942;3.644;2023-04-20T00:11:19;102150.34;;;7.72;64.17
52949;BME280;38812;50.942;3.644;2023-04-20T00:13:44;102146.72;;;7.61;65.26
52949;BME280;38812;50.942;3.644;2023-04-20T00:16:10;102145.75;;;7.53;65.39
52949;BME280;38812;50.942;3.644;2023-04-20T00:18:35;102151.84;;;7.52;65.96
52949;BME280;38812;50.942;3.644;2023-04-20T00:21:01;102161.41;;;7.50;66.71
52949;BME280;38812;50.942;3.644;2023-04-20T00:23:26;102141.31;;;7.46;65.58
52949;BME280;38812;50.942;3.644;2023-04-20T00:25:51;102146.66;;;7.58;65.47
52949;BME280;38812;50.942;3.644;2023-04-20T00:28:17;102128.22;;;7.44;65.72
52949;BME280;38812;50.942;3.644;2023-04-20T00:30:42;102146.66;;;7.58;65.57
52949;BME280;38812;50.942;3.644;2023-04-20T00:33:07;102141.44;;;7.55;64.51
52949;BME280;38812;50.942;3.644;2023-04-20T00:35:33;102136.16;;;7.52;65.10
52949;BME280;38812;50.942;3.644;2023-04-20T00:37:58;102128.25;;;7.47;64.99
52949;BME280;38812;50.942;3.644;2023-04-20T00:40:23;102119.53;;;7.47;64.83
52949;BME280;38812;50.942;3.644;2023-04-20T00:42:49;102132.59;;;7.45;65.17
52949;BME280;38812;50.942;3.644;2023-04-20T00:45:14;102113.22;;;7.30;65.54
52949;BME280;38812;50.942;3.644;2023-04-20T00:47:40;102128.13;;;7.35;66.19
52949;BME280;38812;50.942;3.644;2023-04-20T00:50:06;102127.88;;;7.18;66.86
52949;BME280;38812;50.942;3.644;2023-04-20T00:52:31;102132.22;;;7.18;66.83
52949;BME280;38812;50.942;3.644;2023-04-20T00:54:57;102129.53;;;7.12;67.15
52949;BME280;38812;50.942;3.644;2023-04-20T00:57:24;102133.00;;;7.09;67.33
52949;BME280;38812;50.942;3.644;2023-04-20T00:59:50;102132.00;;;7.01;67.85
52949;BME280;38812;50.942;3.644;2023-04-20T01:02:16;102109.13;;;6.85;68.71
52949;BME280;38812;50.942;3.644;2023-04-20T01:04:43;102117.78;;;6.81;69.15
52949;BME280;38812;50.942;3.644;2023-04-20T01:07:09;102122.91;;;6.75;70.38
52949;BME280;38812;50.942;3.644;2023-04-20T01:09:37;102113.16;;;6.63;70.79
52949;BME280;38812;50.942;3.644;2023-04-20T01:12:04;102124.59;;;6.73;70.24
52949;BME280;38812;50.942;3.644;2023-04-20T01:14:29;102111.53;;;6.71;70.35
52949;BME280;38812;50.942;3.644;2023-04-20T01:16:55;102107.22;;;6.75;70.43
52949;BME280;38812;50.942;3.644;2023-04-20T01:19:20;102112.41;;;6.72;70.34
52949;BME280;38812;50.942;3.644;2023-04-20T01:21:46;102103.66;;;6.67;70.03
52949;BME280;38812;50.942;3.644;2023-04-20T01:24:12;102100.03;;;6.59;71.28
52949;BME280;38812;50.942;3.644;2023-04-20T01:26:37;102086.84;;;6.49;71.10
52949;BME280;38812;50.942;3.644;2023-04-20T01:29:03;102106.88;;;6.52;72.27
52949;BME280;38812;50.942;3.644;2023-04-20T01:31:29;102110.41;;;6.56;71.87
52949;BME280;38812;50.942;3.644;2023-04-20T01:33:55;102103.44;;;6.54;71.50
52949;BME280;38812;50.942;3.644;2023-04-20T01:36:20;102095.50;;;6.47;71.82
52949;BME280;38812;50.942;3.644;2023-04-20T01:38:45;102105.91;;;6.44;71.37
52949;BME280;38812;50.942;3.644;2023-04-20T01:41:11;102096.19;;;6.35;73.03
52949;BME280;38812;50.942;3.644;2023-04-20T01:43:38;102105.75;;;6.35;72.98
52949;BME280;38812;50.942;3.644;2023-04-20T01:46:04;102097.88;;;6.33;72.80
52949;BME280;38812;50.942;3.644;2023-04-20T01:48:29;102092.47;;;6.21;73.11
52949;BME280;38812;50.942;3.644;2023-04-20T01:50:55;102102.97;;;6.24;74.25
52949;BME280;38812;50.942;3.644;2023-04-20T01:53:20;102097.69;;;6.21;73.39
52949;BME280;38812;50.942;3.644;2023-04-20T01:55:47;102084.38;;;6.04;74.56
52949;BME280;38812;50.942;3.644;2023-04-20T01:58:12;102086.00;;;5.98;75.58
52949;BME280;38812;50.942;3.644;2023-04-20T02:00:38;102083.13;;;5.87;76.35
52949;BME280;38812;50.942;3.644;2023-04-20T02:03:03;102097.06;;;5.88;76.90
52949;BME280;38812;50.942;3.644;2023-04-20T02:05:28;102097.06;;;5.88;75.79
52949;BME280;38812;50.942;3.644;2023-04-20T02:07:54;102090.13;;;5.88;75.71
52949;BME280;38812;50.942;3.644;2023-04-20T02:10:19;102088.44;;;5.90;76.35
52949;BME280;38812;50.942;3.644;2023-04-20T02:12:46;102089.25;;;5.88;75.46
52949;BME280;38812;50.942;3.644;2023-04-20T02:15:12;102093.53;;;5.85;77.18
52949;BME280;38812;50.942;3.644;2023-04-20T02:17:37;102096.06;;;5.79;77.92
52949;BME280;38812;50.942;3.644;2023-04-20T02:20:03;102084.59;;;5.71;76.96
52949;BME280;38812;50.942;3.644;2023-04-20T02:22:33;102090.78;;;5.76;77.53
52949;BME280;38812;50.942;3.644;2023-04-20T02:25:00;102090.56;;;5.66;78.63
52949;BME280;38812;50.942;3.644;2023-04-20T02:27:29;102084.28;;;5.55;79.39
52949;BME280;38812;50.942;3.644;2023-04-20T02:29:55;102082.56;;;5.55;78.35
52949;BME280;38812;50.942;3.644;2023-04-20T02:32:20;102088.63;;;5.54;78.74
52949;BME280;38812;50.942;3.644;2023-04-20T02:34:46;102084.19;;;5.50;79.63
52949;BME280;38812;50.942;3.644;2023-04-20T02:37:11;102085.81;;;5.45;80.16
52949;BME280;38812;50.942;3.644;2023-04-20T02:39:37;102086.47;;;5.33;80.73
52949;BME280;38812;50.942;3.644;2023-04-20T02:42:04;102084.81;;;5.37;80.02
52949;BME280;38812;50.942;3.644;2023-04-20T02:44:29;102078.56;;;5.29;81.18
52949;BME280;38812;50.942;3.644;2023-04-20T02:46:55;102086.44;;;5.32;81.66
52949;BME280;38812;50.942;3.644;2023-04-20T02:49:20;102093.44;;;5.34;81.96
52949;BME280;38812;50.942;3.644;2023-04-20T02:51:46;102090.59;;;5.24;83.84
52949;BME280;38812;50.942;3.644;2023-04-20T02:54:11;102087.88;;;5.16;84.79
52949;BME280;38812;50.942;3.644;2023-04-20T02:56:36;102077.13;;;5.02;86.76
52949;BME280;38812;50.942;3.644;2023-04-20T02:59:03;102086.84;;;5.09;86.79
52949;BME280;38812;50.942;3.644;2023-04-20T03:01:28;102078.88;;;5.02;87.46
52949;BME280;38812;50.942;3.644;2023-04-20T03:03:54;102080.28;;;4.86;90.99
52949;BME280;38812;50.942;3.644;2023-04-20T03:06:20;102075.84;;;4.82;90.47
52949;BME280;38812;50.942;3.644;2023-04-20T03:08:45;102073.19;;;4.80;90.61
52949;BME280;38812;50.942;3.644;2023-04-20T03:11:11;102061.72;;;4.71;90.69
52949;BME280;38812;50.942;3.644;2023-04-20T03:13:36;102054.59;;;4.64;92.68
52949;BME280;38812;50.942;3.644;2023-04-20T03:16:02;102062.81;;;4.82;90.11
52949;BME280;38812;50.942;3.644;2023-04-20T03:18:29;102067.09;;;4.80;90.81
52949;BME280;38812;50.942;3.644;2023-04-20T03:20:54;102066.84;;;4.68;93.03
52949;BME280;38812;50.942;3.644;2023-04-20T03:23:19;102067.50;;;4.59;100.00
52949;BME280;38812;50.942;3.644;2023-04-20T03:25:45;102067.69;;;4.29;100.00
52949;BME280;38812;50.942;3.644;2023-04-20T03:28:10;102067.38;;;4.17;100.00
52949;BME280;38812;50.942;3.644;2023-04-20T03:30:36;102066.53;;;3.84;100.00
52949;BME280;38812;50.942;3.644;2023-04-20T03:33:01;102070.56;;;3.72;100.00
52949;BME280;38812;50.942;3.644;2023-04-20T03:35:26;102068.25;;;3.83;100.00
52949;BME280;38812;50.942;3.644;2023-04-20T03:37:52;102065.97;;;3.95;100.00
52949;BME280;38812;50.942;3.644;2023-04-20T03:40:18;102054.72;;;3.96;100.00
52949;BME280;38812;50.942;3.644;2023-04-20T03:42:43;102044.44;;;4.01;100.00
52949;BME280;38812;50.942;3.644;2023-04-20T03:45:09;102058.53;;;4.09;100.00
52949;BME280;38812;50.942;3.644;2023-04-20T03:47:35;102054.16;;;4.08;100.00
52949;BME280;38812;50.942;3.644;2023-04-20T03:50:00;102055.22;;;4.16;100.00
52949;BME280;38812;50.942;3.644;2023-04-20T03:52:25;102052.25;;;4.01;100.00
52949;BME280;38812;50.942;3.644;2023-04-20T03:54:51;102039.59;;;3.80;100.00
52949;BME280;38812;50.942;3.644;2023-04-20T03:57:16;102048.75;;;3.66;100.00
52949;BME280;38812;50.942;3.644;2023-04-20T03:59:42;102053.47;;;3.49;100.00
52949;BME280;38812;50.942;3.644;2023-04-20T04:02:07;102046.13;;;3.33;100.00
52949;BME280;38812;50.942;3.644;2023-04-20T04:04:35;102043.66;;;3.07;100.00
52949;BME280;38812;50.942;3.644;2023-04-20T04:07:00;102039.22;;;3.02;100.00
52949;BME280;38812;50.942;3.644;2023-04-20T04:09:26;102040.03;;;3.01;100.00
52949;BME280;38812;50.942;3.644;2023-04-20T04:11:51;102026.69;;;2.89;100.00
52949;BME280;38812;50.942;3.644;2023-04-20T04:14:16;102032.84;;;2.92;100.00
52949;BME280;38812;50.942;3.644;2023-04-20T04:16:42;102024.59;;;2.75;100.00
52949;BME280;38812;50.942;3.644;2023-04-20T04:19:07;102006.09;;;2.65;100.00
52949;BME280;38812;50.942;3.644;2023-04-20T04:21:33;102027.31;;;2.80;100.00
52949;BME280;38812;50.942;3.644;2023-04-20T04:23:58;102019.66;;;2.85;100.00
52949;BME280;38812;50.942;3.644;2023-04-20T04:26:24;102012.19;;;2.95;100.00
52949;BME280;38812;50.942;3.644;2023-04-20T04:28:50;102015.22;;;2.81;100.00
52949;BME280;38812;50.942;3.644;2023-04-20T04:31:16;102006.63;;;2.83;100.00
52949;BME280;38812;50.942;3.644;2023-04-20T04:33:45;102013.41;;;2.78;100.00
52949;BME280;38812;50.942;3.644;2023-04-20T04:36:11;102006.22;;;2.69;100.00
52949;BME280;38812;50.942;3.644;2023-04-20T04:38:42;102018.59;;;2.78;100.00
52949;BME280;38812;50.942;3.644;2023-04-20T04:41:11;102010.25;;;2.88;100.00
52949;BME280;38812;50.942;3.644;2023-04-20T04:43:40;102001.66;;;2.91;100.00
52949;BME280;38812;50.942;3.644;2023-04-20T04:46:10;102007.00;;;2.95;100.00
52949;BME280;38812;50.942;3.644;2023-04-20T04:48:36;101994.94;;;2.97;100.00
52949;BME280;38812;50.942;3.644;2023-04-20T04:51:02;101998.03;;;2.86;100.00
52949;BME280;38812;50.942;3.644;2023-04-20T04:53:28;102003.47;;;2.93;100.00
52949;BME280;38812;50.942;3.644;2023-04-20T04:55:53;101993.09;;;3.25;100.00
52949;BME280;38812;50.942;3.644;2023-04-20T04:58:18;101990.38;;;3.53;100.00
52949;BME280;38812;50.942;3.644;2023-04-20T05:00:44;101978.88;;;3.78;100.00
52949;BME280;38812;50.942;3.644;2023-04-20T05:03:09;101984.63;;;4.01;100.00
52949;BME280;38812;50.942;3.644;2023-04-20T05:05:35;101977.91;;;4.09;100.00
52949;BME280;38812;50.942;3.644;2023-04-20T05:08:00;101993.66;;;4.17;100.00
52949;BME280;38812;50.942;3.644;2023-04-20T05:10:26;101999.63;;;4.12;100.00
52949;BME280;38812;50.942;3.644;2023-04-20T05:12:51;101992.59;;;4.07;100.00
52949;BME280;38812;50.942;3.644;2023-04-20T05:15:17;101988.50;;;4.18;100.00
52949;BME280;38812;50.942;3.644;2023-04-20T05:17:42;101993.50;;;4.09;100.00
52949;BME280;38812;50.942;3.644;2023-04-20T05:20:08;101999.22;;;4.30;100.00
52949;BME280;38812;50.942;3.644;2023-04-20T05:22:38;102001.84;;;4.71;100.00
52949;BME280;38812;50.942;3.644;2023-04-20T05:25:04;102001.19;;;4.81;100.00
52949;BME280;38812;50.942;3.644;2023-04-20T05:27:31;101991.09;;;4.96;100.00
52949;BME280;38812;50.942;3.644;2023-04-20T05:29:57;101988.09;;;5.22;100.00
52949;BME280;38812;50.942;3.644;2023-04-20T05:32:22;101972.72;;;5.35;100.00
52949;BME280;38812;50.942;3.644;2023-04-20T05:34:48;101952.19;;;5.52;100.00
52949;BME280;38812;50.942;3.644;2023-04-20T05:37:14;101972.59;;;5.77;100.00
52949;BME280;38812;50.942;3.644;2023-04-20T05:39:39;101961.63;;;5.97;100.00
52949;BME280;38812;50.942;3.644;2023-04-20T05:42:05;101958.66;;;6.31;100.00
52949;BME280;38812;50.942;3.644;2023-04-20T05:44:30;101953.06;;;6.67;100.00
52949;BME280;38812;50.942;3.644;2023-04-20T05:46:55;101942.03;;;6.91;100.00
52949;BME280;38812;50.942;3.644;2023-04-20T05:49:22;101934.44;;;7.17;100.00
52949;BME280;38812;50.942;3.644;2023-04-20T05:51:47;101932.00;;;7.31;100.00
52949;BME280;38812;50.942;3.644;2023-04-20T05:54:12;101943.47;;;7.48;100.00
52949;BME280;38812;50.942;3.644;2023-04-20T05:56:38;101921.69;;;7.49;100.00
52949;BME280;38812;50.942;3.644;2023-04-20T05:59:03;101929.66;;;7.63;100.00
52949;BME280;38812;50.942;3.644;2023-04-20T06:01:29;101925.41;;;7.75;100.00
52949;BME280;38812;50.942;3.644;2023-04-20T06:03:54;101926.25;;;7.73;100.00
52949;BME280;38812;50.942;3.644;2023-04-20T06:06:20;101916.75;;;7.85;100.00
52949;BME280;38812;50.942;3.644;2023-04-20T06:08:45;101915.94;;;7.94;100.00
52949;BME280;38812;50.942;3.644;2023-04-20T06:11:11;101908.13;;;8.02;100.00
52949;BME280;38812;50.942;3.644;2023-04-20T06:13:36;101910.41;;;9.24;100.00
52949;BME280;38812;50.942;3.644;2023-04-20T06:16:01;101912.06;;;8.86;100.00
52949;BME280;38812;50.942;3.644;2023-04-20T06:18:27;101906.69;;;8.43;100.00
52949;BME280;38812;50.942;3.644;2023-04-20T06:20:53;101901.31;;;8.31;100.00
52949;BME280;38812;50.942;3.644;2023-04-20T06:23:18;101908.28;;;8.27;100.00
52949;BME280;38812;50.942;3.644;2023-04-20T06:25:43;101903.91;;;8.25;100.00
52949;BME280;38812;50.942;3.644;2023-04-20T06:28:09;101901.31;;;8.28;100.00
52949;BME280;38812;50.942;3.644;2023-04-20T06:30:35;101916.25;;;8.38;100.00
52949;BME280;38812;50.942;3.644;2023-04-20T06:33:01;101908.41;;;8.41;100.00
52949;BME280;38812;50.942;3.644;2023-04-20T06:35:27;101904.06;;;8.52;100.00
52949;BME280;38812;50.942;3.644;2023-04-20T06:37:52;101882.25;;;8.50;100.00
52949;BME280;38812;50.942;3.644;2023-04-20T06:40:20;101902.38;;;8.62;98.07
52949;BME280;38812;50.942;3.644;2023-04-20T06:42:45;101886.66;;;8.68;98.32
52949;BME280;38812;50.942;3.644;2023-04-20T06:45:11;101884.97;;;8.90;99.04
52949;BME280;38812;50.942;3.644;2023-04-20T06:47:36;101886.78;;;9.02;99.22
52949;BME280;38812;50.942;3.644;2023-04-20T06:50:04;101882.41;;;9.11;96.03
52949;BME280;38812;50.942;3.644;2023-04-20T06:52:33;101878.06;;;9.07;94.47
52949;BME280;38812;50.942;3.644;2023-04-20T06:54:59;101891.13;;;9.01;95.43
52949;BME280;38812;50.942;3.644;2023-04-20T06:57:24;101884.13;;;8.97;94.37
52949;BME280;38812;50.942;3.644;2023-04-20T06:59:50;101879.78;;;9.02;94.45
52949;BME280;38812;50.942;3.644;2023-04-20T07:02:15;101880.66;;;9.03;98.14
52949;BME280;38812;50.942;3.644;2023-04-20T07:04:41;101867.53;;;8.86;99.28
52949;BME280;38812;50.942;3.644;2023-04-20T07:07:06;101855.28;;;8.85;99.01
52949;BME280;38812;50.942;3.644;2023-04-20T07:09:32;101850.94;;;8.87;100.00
52949;BME280;38812;50.942;3.644;2023-04-20T07:11:57;101857.91;;;8.83;100.00
52949;BME280;38812;50.942;3.644;2023-04-20T07:14:23;101868.34;;;8.73;100.00
52949;BME280;38812;50.942;3.644;2023-04-20T07:16:51;101873.56;;;8.70;100.00
52949;BME280;38812;50.942;3.644;2023-04-20T07:19:17;101877.06;;;8.69;100.00
52949;BME280;38812;50.942;3.644;2023-04-20T07:21:42;101849.13;;;8.68;100.00
52949;BME280;38812;50.942;3.644;2023-04-20T07:24:07;101857.91;;;8.79;100.00
52949;BME280;38812;50.942;3.644;2023-04-20T07:26:33;101843.91;;;8.80;100.00
52949;BME280;38812;50.942;3.644;2023-04-20T07:28:58;101845.66;;;8.78;100.00
52949;BME280;38812;50.942;3.644;2023-04-20T07:31:23;101840.44;;;8.96;100.00
52949;BME280;38812;50.942;3.644;2023-04-20T07:33:49;101848.28;;;8.88;100.00
52949;BME280;38812;50.942;3.644;2023-04-20T07:36:15;101842.22;;;9.00;100.00
52949;BME280;38812;50.942;3.644;2023-04-20T07:38:40;101840.47;;;9.17;100.00
52949;BME280;38812;50.942;3.644;2023-04-20T07:41:09;101830.84;;;9.13;100.00
52949;BME280;38812;50.942;3.644;2023-04-20T07:43:35;101841.38;;;9.27;100.00
52949;BME280;38812;50.942;3.644;2023-04-20T07:46:00;101843.97;;;9.32;100.00
52949;BME280;38812;50.942;3.644;2023-04-20T07:48:26;101847.47;;;9.46;100.00
52949;BME280;38812;50.942;3.644;2023-04-20T07:50:51;101832.63;;;9.26;100.00
52949;BME280;38812;50.942;3.644;2023-04-20T07:53:17;101827.34;;;9.33;100.00
52949;BME280;38812;50.942;3.644;2023-04-20T07:55:43;101833.47;;;9.41;100.00
52949;BME280;38812;50.942;3.644;2023-04-20T07:58:08;101827.38;;;9.49;100.00
52949;BME280;38812;50.942;3.644;2023-04-20T08:00:34;101834.38;;;9.31;100.00
52949;BME280;38812;50.942;3.644;2023-04-20T08:02:59;101842.22;;;9.15;100.00
52949;BME280;38812;50.942;3.644;2023-04-20T08:05:24;101816.88;;;8.99;100.00
52949;BME280;38812;50.942;3.644;2023-04-20T08:07:50;101822.06;;;8.75;100.00
52949;BME280;38812;50.942;3.644;2023-04-20T08:10:15;101836.91;;;8.73;100.00
52949;BME280;38812;50.942;3.644;2023-04-20T08:12:41;101849.91;;;8.45;100.00
52949;BME280;38812;50.942;3.644;2023-04-20T08:15:07;101845.47;;;8.31;100.00
52949;BME280;38812;50.942;3.644;2023-04-20T08:17:33;101849.78;;;8.18;100.00
52949;BME280;38812;50.942;3.644;2023-04-20T08:19:58;101853.28;;;8.20;100.00
52949;BME280;38812;50.942;3.644;2023-04-20T08:22:23;101845.44;;;8.20;100.00
52949;BME280;38812;50.942;3.644;2023-04-20T08:24:51;101842.06;;;8.42;100.00
52949;BME280;38812;50.942;3.644;2023-04-20T08:27:17;101829.88;;;8.44;100.00
52949;BME280;38812;50.942;3.644;2023-04-20T08:29:42;101833.34;;;8.48;100.00
52949;BME280;38812;50.942;3.644;2023-04-20T08:32:08;101831.63;;;8.44;100.00
52949;BME280;38812;50.942;3.644;2023-04-20T08:34:34;101831.66;;;8.61;100.00
52949;BME280;38812;50.942;3.644;2023-04-20T08:36:59;101824.69;;;8.66;100.00
52949;BME280;38812;50.942;3.644;2023-04-20T08:39:24;101819.47;;;8.81;100.00
52949;BME280;38812;50.942;3.644;2023-04-20T08:41:50;101823.84;;;9.14;100.00
52949;BME280;38812;50.942;3.644;2023-04-20T08:44:20;101815.97;;;9.61;100.00
52949;BME280;38812;50.942;3.644;2023-04-20T08:46:46;101801.09;;;9.71;100.00
52949;BME280;38812;50.942;3.644;2023-04-20T08:49:17;101803.63;;;9.96;100.00
52949;BME280;38812;50.942;3.644;2023-04-20T08:51:45;101788.72;;;10.06;100.00
52949;BME280;38812;50.942;3.644;2023-04-20T08:54:11;101797.44;;;10.19;100.00
52949;BME280;38812;50.942;3.644;2023-04-20T08:56:38;101789.59;;;10.13;100.00
52949;BME280;38812;50.942;3.644;2023-04-20T08:59:05;101798.28;;;10.27;100.00
52949;BME280;38812;50.942;3.644;2023-04-20T09:01:37;101792.13;;;10.36;100.00
52949;BME280;38812;50.942;3.644;2023-04-20T09:04:18;101790.44;;;10.16;100.00
52949;BME280;38812;50.942;3.644;2023-04-20T09:06:45;101805.34;;;10.01;100.00
52949;BME280;38812;50.942;3.644;2023-04-20T09:09:11;101783.41;;;10.23;100.00
52949;BME280;38812;50.942;3.644;2023-04-20T09:11:37;101788.56;;;10.43;100.00
52949;BME280;38812;50.942;3.644;2023-04-20T09:14:03;101779.03;;;10.25;100.00
52949;BME280;38812;50.942;3.644;2023-04-20T09:16:33;101788.78;;;9.91;100.00
52949;BME280;38812;50.942;3.644;2023-04-20T09:18:59;101800.22;;;9.70;100.00
52949;BME280;38812;50.942;3.644;2023-04-20T09:21:26;101783.66;;;9.39;100.00
52949;BME280;38812;50.942;3.644;2023-04-20T09:24:03;101779.28;;;9.44;100.00
52949;BME280;38812;50.942;3.644;2023-04-20T09:26:34;101775.78;;;9.35;100.00
52949;BME280;38812;50.942;3.644;2023-04-20T09:29:01;101775.78;;;9.32;100.00
52949;BME280;38812;50.942;3.644;2023-04-20T09:31:27;101765.28;;;9.33;100.00
52949;BME280;38812;50.942;3.644;2023-04-20T09:34:00;101773.16;;;9.33;100.00
52949;BME280;38812;50.942;3.644;2023-04-20T09:36:36;101770.53;;;9.41;100.00
52949;BME280;38812;50.942;3.644;2023-04-20T09:39:03;101761.78;;;9.49;100.00
52949;BME280;38812;50.942;3.644;2023-04-20T09:41:30;101747.84;;;9.31;100.00
52949;BME280;38812;50.942;3.644;2023-04-20T09:43:56;101745.22;;;9.27;100.00
52949;BME280;38812;50.942;3.644;2023-04-20T09:46:22;101755.72;;;9.08;100.00
52949;BME280;38812;50.942;3.644;2023-04-20T09:48:48;101757.44;;;9.28;100.00
52949;BME280;38812;50.942;3.644;2023-04-20T09:51:14;101745.19;;;9.35;100.00
52949;BME280;38812;50.942;3.644;2023-04-20T09:53:40;101746.94;;;9.36;100.00
52949;BME280;38812;50.942;3.644;2023-04-20T09:56:06;101739.94;;;9.41;100.00
52949;BME280;38812;50.942;3.644;2023-04-20T09:58:33;101746.06;;;9.39;100.00
52949;BME280;38812;50.942;3.644;2023-04-20T10:01:00;101746.09;;;9.23;100.00
52949;BME280;38812;50.942;3.644;2023-04-20T10:03:25;101740.84;;;9.14;100.00
52949;BME280;38812;50.942;3.644;2023-04-20T10:05:51;101739.09;;;9.22;100.00
52949;BME280;38812;50.942;3.644;2023-04-20T10:08:19;101731.19;;;9.44;100.00
52949;BME280;38812;50.942;3.644;2023-04-20T10:10:47;101725.06;;;9.48;100.00
52949;BME280;38812;50.942;3.644;2023-04-20T10:13:13;101715.44;;;9.51;100.00
52949;BME280;38812;50.942;3.644;2023-04-20T10:15:40;101724.19;;;9.40;100.00
52949;BME280;38812;50.942;3.644;2023-04-20T10:18:19;101705.78;;;9.59;100.00
52949;BME280;38812;50.942;3.644;2023-04-20T10:20:46;101704.09;;;9.51;100.00
52949;BME280;38812;50.942;3.644;2023-04-20T10:23:12;101697.97;;;9.40;100.00
52949;BME280;38812;50.942;3.644;2023-04-20T10:25:40;101699.72;;;9.39;100.00
52949;BME280;38812;50.942;3.644;2023-04-20T10:28:06;101690.16;;;9.31;100.00
52949;BME280;38812;50.942;3.644;2023-04-20T10:30:36;101701.47;;;9.37;100.00
52949;BME280;38812;50.942;3.644;2023-04-20T10:33:11;101691.03;;;9.26;100.00
52949;BME280;38812;50.942;3.644;2023-04-20T10:35:46;101688.28;;;9.58;100.00
52949;BME280;38812;50.942;3.644;2023-04-20T10:38:13;101680.41;;;9.63;100.00
52949;BME280;38812;50.942;3.644;2023-04-20T10:40:38;101684.78;;;9.61;100.00
52949;BME280;38812;50.942;3.644;2023-04-20T10:43:16;101678.69;;;9.53;100.00
52949;BME280;38812;50.942;3.644;2023-04-20T10:45:42;101670.06;;;9.28;100.00
52949;BME280;38812;50.942;3.644;2023-04-20T10:48:08;101675.25;;;9.31;100.00
52949;BME280;38812;50.942;3.644;2023-04-20T10:50:34;101667.44;;;9.16;100.00
52949;BME280;38812;50.942;3.644;2023-04-20T10:52:59;101669.22;;;9.05;100.00
52949;BME280;38812;50.942;3.644;2023-04-20T10:55:25;101678.81;;;9.18;100.00
52949;BME280;38812;50.942;3.644;2023-04-20T10:57:51;101677.94;;;9.20;100.00
52949;BME280;38812;50.942;3.644;2023-04-20T11:00:18;101663.97;;;8.97;100.00
52949;BME280;38812;50.942;3.644;2023-04-20T11:02:51;101676.19;;;9.10;100.00
52949;BME280;38812;50.942;3.644;2023-04-20T11:05:17;101669.22;;;9.03;100.00
52949;BME280;38812;50.942;3.644;2023-04-20T11:07:50;101671.81;;;9.11;100.00
52949;BME280;38812;50.942;3.644;2023-04-20T11:10:16;101663.97;;;9.08;100.00
52949;BME280;38812;50.942;3.644;2023-04-20T11:12:42;101660.50;;;9.07;100.00
52949;BME280;38812;50.942;3.644;2023-04-20T11:15:07;101670.06;;;9.10;100.00
52949;BME280;38812;50.942;3.644;2023-04-20T11:17:36;101655.25;;;8.98;100.00
52949;BME280;38812;50.942;3.644;2023-04-20T11:20:10;101662.25;;;8.96;100.00
52949;BME280;38812;50.942;3.644;2023-04-20T11:22:41;101652.66;;;8.77;100.00
52949;BME280;38812;50.942;3.644;2023-04-20T11:25:08;101650.94;;;8.64;100.00
52949;BME280;38812;50.942;3.644;2023-04-20T11:27:35;101671.88;;;8.65;100.00
52949;BME280;38812;50.942;3.644;2023-04-20T11:30:02;101653.53;;;8.64;100.00
52949;BME280;38812;50.942;3.644;2023-04-20T11:32:32;101664.91;;;8.66;100.00
52949;BME280;38812;50.942;3.644;2023-04-20T11:34:59;101640.44;;;8.59;100.00
52949;BME280;38812;50.942;3.644;2023-04-20T11:37:26;101661.41;;;8.65;100.00
52949;BME280;38812;50.942;3.644;2023-04-20T11:40:18;101663.13;;;8.68;100.00
52949;BME280;38812;50.942;3.644;2023-04-20T11:42:44;101645.69;;;8.62;100.00
52949;BME280;38812;50.942;3.644;2023-04-20T11:45:10;101664.91;;;8.63;100.00
52949;BME280;38812;50.942;3.644;2023-04-20T11:47:36;101656.13;;;8.68;100.00
52949;BME280;38812;50.942;3.644;2023-04-20T11:50:03;101659.63;;;8.79;100.00
52949;BME280;38812;50.942;3.644;2023-04-20T11:52:29;101654.41;;;8.75;100.00
52949;BME280;38812;50.942;3.644;2023-04-20T11:54:54;101657.00;;;8.90;100.00
52949;BME280;38812;50.942;3.644;2023-04-20T11:57:19;101652.63;;;9.03;100.00
52949;BME280;38812;50.942;3.644;2023-04-20T11:59:47;101639.47;;;9.22;100.00
52949;BME280;38812;50.942;3.644;2023-04-20T12:02:13;101618.34;;;9.56;100.00
52949;BME280;38812;50.942;3.644;2023-04-20T12:04:39;101636.66;;;9.73;100.00
52949;BME280;38812;50.942;3.644;2023-04-20T12:07:04;101612.16;;;9.74;100.00
52949;BME280;38812;50.942;3.644;2023-04-20T12:09:30;101637.47;;;9.79;100.00
52949;BME280;38812;50.942;3.644;2023-04-20T12:12:00;101627.03;;;9.73;100.00
52949;BME280;38812;50.942;3.644;2023-04-20T12:14:26;101608.78;;;9.52;100.00
52949;BME280;38812;50.942;3.644;2023-04-20T12:16:51;101613.09;;;9.53;100.00
52949;BME280;38812;50.942;3.644;2023-04-20T12:19:16;101617.44;;;9.65;100.00
52949;BME280;38812;50.942;3.644;2023-04-20T12:21:42;101612.09;;;9.78;100.00
52949;BME280;38812;50.942;3.644;2023-04-20T12:24:08;101611.06;;;10.07;100.00
52949;BME280;38812;50.942;3.644;2023-04-20T12:26:33;101616.44;;;9.91;100.00
52949;BME280;38812;50.942;3.644;2023-04-20T12:29:00;101605.19;;;9.71;100.00
52949;BME280;38812;50.942;3.644;2023-04-20T12:31:26;101611.25;;;9.76;100.00
52949;BME280;38812;50.942;3.644;2023-04-20T12:33:51;101604.34;;;9.60;100.00
52949;BME280;38812;50.942;3.644;2023-04-20T12:36:18;101612.28;;;9.52;100.00
52949;BME280;38812;50.942;3.644;2023-04-20T12:38:43;101613.16;;;9.47;100.00
52949;BME280;38812;50.942;3.644;2023-04-20T12:41:13;101604.44;;;9.40;100.00
52949;BME280;38812;50.942;3.644;2023-04-20T12:43:39;101614.97;;;9.30;100.00
52949;BME280;38812;50.942;3.644;2023-04-20T12:46:04;101618.44;;;9.32;100.00
52949;BME280;38812;50.942;3.644;2023-04-20T12:48:29;101625.41;;;9.39;100.00